sensor_id;sensor_type;location;lat;lon;timestamp;P1;durP1;ratioP1;P2;durP2;ratioP2
20014;SDS011;61787;42.022;23.078;2023-08-07T00:00:57;1.48;;;0.70;;
20014;SDS011;61787;42.022;23.078;2023-08-07T00:01:59;1.13;;;0.80;;
20014;SDS011;61787;42.022;23.078;2023-08-07T00:03:01;0.80;;;0.63;;
20014;SDS011;61787;42.022;23.078;2023-08-07T00:04:04;1.40;;;0.80;;
20014;SDS011;61787;42.022;23.078;2023-08-07T00:05:05;3.13;;;0.90;;
20014;SDS011;61787;42.022;23.078;2023-08-07T00:06:07;1.38;;;0.80;;
20014;SDS011;61787;42.022;23.078;2023-08-07T00:07:09;2.13;;;0.80;;
20014;SDS011;61787;42.022;23.078;2023-08-07T00:08:11;0.80;;;0.70;;
20014;SDS011;61787;42.022;23.078;2023-08-07T00:09:15;1.00;;;0.60;;
20014;SDS011;61787;42.022;23.078;2023-08-07T00:10:17;3.15;;;0.90;;
20014;SDS011;61787;42.022;23.078;2023-08-07T00:11:19;0.98;;;0.80;;
20014;SDS011;61787;42.022;23.078;2023-08-07T00:12:20;4.60;;;0.77;;
20014;SDS011;61787;42.022;23.078;2023-08-07T00:13:22;0.75;;;0.75;;
20014;SDS011;61787;42.022;23.078;2023-08-07T00:14:23;2.50;;;0.70;;
20014;SDS011;61787;42.022;23.078;2023-08-07T00:15:25;1.70;;;0.70;;
20014;SDS011;61787;42.022;23.078;2023-08-07T00:16:27;3.05;;;0.93;;
20014;SDS011;61787;42.022;23.078;2023-08-07T00:17:28;1.00;;;0.70;;
20014;SDS011;61787;42.022;23.078;2023-08-07T00:18:30;1.42;;;1.00;;
20014;SDS011;61787;42.022;23.078;2023-08-07T00:19:32;0.73;;;0.60;;
20014;SDS011;61787;42.022;23.078;2023-08-07T00:20:34;0.75;;;0.73;;
20014;SDS011;61787;42.022;23.078;2023-08-07T00:21:36;1.40;;;1.00;;
20014;SDS011;61787;42.022;23.078;2023-08-07T00:22:39;0.60;;;0.60;;
20014;SDS011;61787;42.022;23.078;2023-08-07T00:23:40;2.60;;;0.82;;
20014;SDS011;61787;42.022;23.078;2023-08-07T00:24:42;1.20;;;0.88;;
20014;SDS011;61787;42.022;23.078;2023-08-07T00:25:43;0.68;;;0.60;;
20014;SDS011;61787;42.022;23.078;2023-08-07T00:26:45;1.45;;;0.68;;
20014;SDS011;61787;42.022;23.078;2023-08-07T00:27:47;1.33;;;0.60;;
20014;SDS011;61787;42.022;23.078;2023-08-07T00:28:48;3.22;;;0.93;;
20014;SDS011;61787;42.022;23.078;2023-08-07T00:29:50;3.97;;;1.00;;
20014;SDS011;61787;42.022;23.078;2023-08-07T00:30:52;1.70;;;0.85;;
20014;SDS011;61787;42.022;23.078;2023-08-07T00:31:54;1.20;;;0.80;;
20014;SDS011;61787;42.022;23.078;2023-08-07T00:32:55;1.90;;;0.55;;
20014;SDS011;61787;42.022;23.078;2023-08-07T00:33:57;0.95;;;0.80;;
20014;SDS011;61787;42.022;23.078;2023-08-07T00:34:59;1.20;;;0.77;;
20014;SDS011;61787;42.022;23.078;2023-08-07T00:36:01;1.50;;;0.70;;
20014;SDS011;61787;42.022;23.078;2023-08-07T00:37:03;3.22;;;0.80;;
20014;SDS011;61787;42.022;23.078;2023-08-07T00:38:05;0.65;;;0.65;;
20014;SDS011;61787;42.022;23.078;2023-08-07T00:39:06;0.70;;;0.70;;
20014;SDS011;61787;42.022;23.078;2023-08-07T00:40:09;0.90;;;0.88;;
20014;SDS011;61787;42.022;23.078;2023-08-07T00:41:11;1.23;;;0.80;;
20014;SDS011;61787;42.022;23.078;2023-08-07T00:42:13;1.02;;;0.88;;
20014;SDS011;61787;42.022;23.078;2023-08-07T00:43:15;1.45;;;0.70;;
20014;SDS011;61787;42.022;23.078;2023-08-07T00:44:16;2.33;;;1.10;;
20014;SDS011;61787;42.022;23.078;2023-08-07T00:45:18;0.77;;;0.77;;
20014;SDS011;61787;42.022;23.078;2023-08-07T00:46:20;1.25;;;1.00;;
20014;SDS011;61787;42.022;23.078;2023-08-07T00:47:22;1.08;;;0.98;;
20014;SDS011;61787;42.022;23.078;2023-08-07T00:48:24;1.90;;;0.93;;
20014;SDS011;61787;42.022;23.078;2023-08-07T00:49:26;2.65;;;1.10;;
20014;SDS011;61787;42.022;23.078;2023-08-07T00:50:28;2.97;;;0.88;;
20014;SDS011;61787;42.022;23.078;2023-08-07T00:51:47;2.63;;;0.80;;
20014;SDS011;61787;42.022;23.078;2023-08-07T00:52:49;3.33;;;0.93;;
20014;SDS011;61787;42.022;23.078;2023-08-07T00:53:51;1.35;;;0.70;;
20014;SDS011;61787;42.022;23.078;2023-08-07T00:54:53;1.05;;;0.90;;
20014;SDS011;61787;42.022;23.078;2023-08-07T00:55:55;1.23;;;0.70;;
20014;SDS011;61787;42.022;23.078;2023-08-07T00:56:58;1.73;;;0.90;;
20014;SDS011;61787;42.022;23.078;2023-08-07T00:58:05;1.48;;;0.98;;
20014;SDS011;61787;42.022;23.078;2023-08-07T00:59:07;1.60;;;1.00;;
20014;SDS011;61787;42.022;23.078;2023-08-07T01:00:09;0.80;;;0.80;;
20014;SDS011;61787;42.022;23.078;2023-08-07T01:01:11;1.35;;;1.00;;
20014;SDS011;61787;42.022;23.078;2023-08-07T01:02:13;0.80;;;0.80;;
20014;SDS011;61787;42.022;23.078;2023-08-07T01:03:16;1.75;;;1.00;;
20014;SDS011;61787;42.022;23.078;2023-08-07T01:04:18;1.80;;;1.00;;
20014;SDS011;61787;42.022;23.078;2023-08-07T01:05:19;1.80;;;1.02;;
20014;SDS011;61787;42.022;23.078;2023-08-07T01:06:21;1.63;;;0.93;;
20014;SDS011;61787;42.022;23.078;2023-08-07T01:07:23;1.88;;;0.95;;
20014;SDS011;61787;42.022;23.078;2023-08-07T01:08:24;4.00;;;0.93;;
20014;SDS011;61787;42.022;23.078;2023-08-07T01:09:27;2.20;;;1.02;;
20014;SDS011;61787;42.022;23.078;2023-08-07T01:10:55;1.52;;;0.85;;
20014;SDS011;61787;42.022;23.078;2023-08-07T01:12:23;1.85;;;0.85;;
20014;SDS011;61787;42.022;23.078;2023-08-07T01:13:40;2.05;;;0.80;;
20014;SDS011;61787;42.022;23.078;2023-08-07T01:15:07;2.05;;;1.08;;
20014;SDS011;61787;42.022;23.078;2023-08-07T01:16:14;3.72;;;0.90;;
20014;SDS011;61787;42.022;23.078;2023-08-07T01:17:23;2.00;;;0.90;;
20014;SDS011;61787;42.022;23.078;2023-08-07T01:18:26;1.70;;;0.90;;
20014;SDS011;61787;42.022;23.078;2023-08-07T01:19:28;1.85;;;0.90;;
20014;SDS011;61787;42.022;23.078;2023-08-07T01:20:30;1.35;;;1.10;;
20014;SDS011;61787;42.022;23.078;2023-08-07T01:21:32;0.90;;;0.80;;
20014;SDS011;61787;42.022;23.078;2023-08-07T01:22:34;1.02;;;0.95;;
20014;SDS011;61787;42.022;23.078;2023-08-07T01:23:36;1.90;;;0.90;;
20014;SDS011;61787;42.022;23.078;2023-08-07T01:24:39;1.33;;;0.93;;
20014;SDS011;61787;42.022;23.078;2023-08-07T01:25:43;1.25;;;0.80;;
20014;SDS011;61787;42.022;23.078;2023-08-07T01:26:45;2.28;;;0.85;;
20014;SDS011;61787;42.022;23.078;2023-08-07T01:27:55;1.27;;;0.90;;
20014;SDS011;61787;42.022;23.078;2023-08-07T01:29:13;0.98;;;0.85;;
20014;SDS011;61787;42.022;23.078;2023-08-07T01:31:41;2.33;;;0.82;;
20014;SDS011;61787;42.022;23.078;2023-08-07T01:34:10;1.17;;;0.82;;
20014;SDS011;61787;42.022;23.078;2023-08-07T01:35:17;0.85;;;0.85;;
20014;SDS011;61787;42.022;23.078;2023-08-07T01:36:21;0.98;;;0.77;;
20014;SDS011;61787;42.022;23.078;2023-08-07T01:37:26;1.40;;;0.80;;
20014;SDS011;61787;42.022;23.078;2023-08-07T01:38:31;1.75;;;0.80;;
20014;SDS011;61787;42.022;23.078;2023-08-07T01:39:34;1.33;;;0.90;;
20014;SDS011;61787;42.022;23.078;2023-08-07T01:40:37;1.02;;;0.85;;
20014;SDS011;61787;42.022;23.078;2023-08-07T01:41:40;1.70;;;1.00;;
20014;SDS011;61787;42.022;23.078;2023-08-07T01:42:42;0.77;;;0.77;;
20014;SDS011;61787;42.022;23.078;2023-08-07T01:43:45;3.08;;;1.23;;
20014;SDS011;61787;42.022;23.078;2023-08-07T01:44:47;1.23;;;0.80;;
20014;SDS011;61787;42.022;23.078;2023-08-07T01:45:49;2.22;;;1.10;;
20014;SDS011;61787;42.022;23.078;2023-08-07T01:46:50;1.40;;;0.82;;
20014;SDS011;61787;42.022;23.078;2023-08-07T01:47:52;1.70;;;0.73;;
20014;SDS011;61787;42.022;23.078;2023-08-07T01:48:54;2.58;;;0.80;;
20014;SDS011;61787;42.022;23.078;2023-08-07T01:49:56;2.53;;;0.82;;
20014;SDS011;61787;42.022;23.078;2023-08-07T01:50:58;2.05;;;1.13;;
20014;SDS011;61787;42.022;23.078;2023-08-07T01:51:59;2.55;;;1.05;;
20014;SDS011;61787;42.022;23.078;2023-08-07T01:53:01;1.67;;;0.80;;
20014;SDS011;61787;42.022;23.078;2023-08-07T01:54:03;2.22;;;1.15;;
20014;SDS011;61787;42.022;23.078;2023-08-07T01:55:05;1.30;;;1.08;;
20014;SDS011;61787;42.022;23.078;2023-08-07T01:56:07;3.42;;;1.02;;
20014;SDS011;61787;42.022;23.078;2023-08-07T01:57:08;1.77;;;1.00;;
20014;SDS011;61787;42.022;23.078;2023-08-07T01:58:10;3.47;;;0.95;;
20014;SDS011;61787;42.022;23.078;2023-08-07T01:59:12;2.17;;;1.02;;
20014;SDS011;61787;42.022;23.078;2023-08-07T02:00:13;1.20;;;1.10;;
20014;SDS011;61787;42.022;23.078;2023-08-07T02:01:15;2.28;;;0.98;;
20014;SDS011;61787;42.022;23.078;2023-08-07T02:02:17;1.90;;;0.82;;
20014;SDS011;61787;42.022;23.078;2023-08-07T02:03:19;1.27;;;0.73;;
20014;SDS011;61787;42.022;23.078;2023-08-07T02:04:21;1.63;;;1.10;;
20014;SDS011;61787;42.022;23.078;2023-08-07T02:05:23;1.15;;;0.98;;
20014;SDS011;61787;42.022;23.078;2023-08-07T02:06:24;2.25;;;0.90;;
20014;SDS011;61787;42.022;23.078;2023-08-07T02:07:26;2.03;;;0.90;;
20014;SDS011;61787;42.022;23.078;2023-08-07T02:08:27;2.00;;;1.15;;
20014;SDS011;61787;42.022;23.078;2023-08-07T02:09:29;1.38;;;1.00;;
20014;SDS011;61787;42.022;23.078;2023-08-07T02:10:31;2.00;;;1.42;;
20014;SDS011;61787;42.022;23.078;2023-08-07T02:11:32;3.83;;;2.17;;
20014;SDS011;61787;42.022;23.078;2023-08-07T02:12:34;3.33;;;2.28;;
20014;SDS011;61787;42.022;23.078;2023-08-07T02:13:35;6.22;;;2.55;;
20014;SDS011;61787;42.022;23.078;2023-08-07T02:14:37;3.40;;;2.38;;
20014;SDS011;61787;42.022;23.078;2023-08-07T02:15:39;4.78;;;2.38;;
20014;SDS011;61787;42.022;23.078;2023-08-07T02:16:40;2.25;;;2.00;;
20014;SDS011;61787;42.022;23.078;2023-08-07T02:17:42;2.20;;;2.00;;
20014;SDS011;61787;42.022;23.078;2023-08-07T02:18:44;4.72;;;2.20;;
20014;SDS011;61787;42.022;23.078;2023-08-07T02:19:45;3.15;;;1.90;;
20014;SDS011;61787;42.022;23.078;2023-08-07T02:20:47;2.47;;;1.75;;
20014;SDS011;61787;42.022;23.078;2023-08-07T02:21:49;2.72;;;1.63;;
20014;SDS011;61787;42.022;23.078;2023-08-07T02:22:50;2.92;;;1.90;;
20014;SDS011;61787;42.022;23.078;2023-08-07T02:23:52;3.45;;;1.80;;
20014;SDS011;61787;42.022;23.078;2023-08-07T02:24:53;2.30;;;2.10;;
20014;SDS011;61787;42.022;23.078;2023-08-07T02:25:55;2.97;;;1.95;;
20014;SDS011;61787;42.022;23.078;2023-08-07T02:26:56;3.20;;;1.70;;
20014;SDS011;61787;42.022;23.078;2023-08-07T02:27:59;3.75;;;1.85;;
20014;SDS011;61787;42.022;23.078;2023-08-07T02:29:00;2.53;;;1.50;;
20014;SDS011;61787;42.022;23.078;2023-08-07T02:30:04;4.13;;;1.70;;
20014;SDS011;61787;42.022;23.078;2023-08-07T02:31:06;1.98;;;1.60;;
20014;SDS011;61787;42.022;23.078;2023-08-07T02:32:08;4.03;;;1.52;;
20014;SDS011;61787;42.022;23.078;2023-08-07T02:33:10;3.60;;;1.70;;
20014;SDS011;61787;42.022;23.078;2023-08-07T02:34:11;2.05;;;1.60;;
20014;SDS011;61787;42.022;23.078;2023-08-07T02:35:13;1.55;;;1.45;;
20014;SDS011;61787;42.022;23.078;2023-08-07T02:36:15;5.40;;;1.67;;
20014;SDS011;61787;42.022;23.078;2023-08-07T02:37:16;1.83;;;1.55;;
20014;SDS011;61787;42.022;23.078;2023-08-07T02:38:18;1.30;;;1.20;;
20014;SDS011;61787;42.022;23.078;2023-08-07T02:39:20;1.55;;;1.45;;
20014;SDS011;61787;42.022;23.078;2023-08-07T02:40:21;1.50;;;1.30;;
20014;SDS011;61787;42.022;23.078;2023-08-07T02:41:23;4.25;;;1.60;;
20014;SDS011;61787;42.022;23.078;2023-08-07T02:42:24;1.88;;;1.48;;
20014;SDS011;61787;42.022;23.078;2023-08-07T02:43:26;4.63;;;1.27;;
20014;SDS011;61787;42.022;23.078;2023-08-07T02:44:29;4.22;;;1.55;;
20014;SDS011;61787;42.022;23.078;2023-08-07T02:45:31;2.38;;;1.50;;
20014;SDS011;61787;42.022;23.078;2023-08-07T02:46:35;4.03;;;2.10;;
20014;SDS011;61787;42.022;23.078;2023-08-07T02:47:37;2.10;;;1.60;;
20014;SDS011;61787;42.022;23.078;2023-08-07T02:48:39;2.75;;;1.73;;
20014;SDS011;61787;42.022;23.078;2023-08-07T02:49:41;2.60;;;1.80;;
20014;SDS011;61787;42.022;23.078;2023-08-07T02:50:43;2.50;;;1.80;;
20014;SDS011;61787;42.022;23.078;2023-08-07T02:51:44;3.35;;;1.50;;
20014;SDS011;61787;42.022;23.078;2023-08-07T02:52:46;2.65;;;1.70;;
20014;SDS011;61787;42.022;23.078;2023-08-07T02:53:47;2.85;;;1.80;;
20014;SDS011;61787;42.022;23.078;2023-08-07T02:54:49;1.50;;;1.40;;
20014;SDS011;61787;42.022;23.078;2023-08-07T02:55:50;2.28;;;1.58;;
20014;SDS011;61787;42.022;23.078;2023-08-07T02:56:52;2.22;;;1.60;;
20014;SDS011;61787;42.022;23.078;2023-08-07T02:57:54;3.17;;;1.30;;
20014;SDS011;61787;42.022;23.078;2023-08-07T02:58:56;3.35;;;1.40;;
20014;SDS011;61787;42.022;23.078;2023-08-07T02:59:59;1.83;;;1.63;;
20014;SDS011;61787;42.022;23.078;2023-08-07T03:01:04;3.58;;;1.60;;
20014;SDS011;61787;42.022;23.078;2023-08-07T03:02:09;4.35;;;1.60;;
20014;SDS011;61787;42.022;23.078;2023-08-07T03:03:11;5.10;;;1.65;;
20014;SDS011;61787;42.022;23.078;2023-08-07T03:04:12;2.50;;;1.45;;
20014;SDS011;61787;42.022;23.078;2023-08-07T03:05:14;1.98;;;1.42;;
20014;SDS011;61787;42.022;23.078;2023-08-07T03:06:17;5.47;;;1.58;;
20014;SDS011;61787;42.022;23.078;2023-08-07T03:07:19;3.72;;;1.42;;
20014;SDS011;61787;42.022;23.078;2023-08-07T03:08:20;3.78;;;1.45;;
20014;SDS011;61787;42.022;23.078;2023-08-07T03:09:22;2.17;;;1.40;;
20014;SDS011;61787;42.022;23.078;2023-08-07T03:10:24;1.50;;;1.40;;
20014;SDS011;61787;42.022;23.078;2023-08-07T03:11:27;2.22;;;1.20;;
20014;SDS011;61787;42.022;23.078;2023-08-07T03:12:28;4.68;;;1.50;;
20014;SDS011;61787;42.022;23.078;2023-08-07T03:13:30;2.95;;;1.48;;
20014;SDS011;61787;42.022;23.078;2023-08-07T03:14:32;3.67;;;1.52;;
20014;SDS011;61787;42.022;23.078;2023-08-07T03:15:33;4.55;;;1.80;;
20014;SDS011;61787;42.022;23.078;2023-08-07T03:16:35;3.00;;;1.58;;
20014;SDS011;61787;42.022;23.078;2023-08-07T03:17:36;3.83;;;1.70;;
20014;SDS011;61787;42.022;23.078;2023-08-07T03:18:38;3.47;;;1.83;;
20014;SDS011;61787;42.022;23.078;2023-08-07T03:19:41;3.58;;;1.60;;
20014;SDS011;61787;42.022;23.078;2023-08-07T03:20:44;2.53;;;1.80;;
20014;SDS011;61787;42.022;23.078;2023-08-07T03:21:46;3.88;;;1.90;;
20014;SDS011;61787;42.022;23.078;2023-08-07T03:22:47;1.70;;;1.33;;
20014;SDS011;61787;42.022;23.078;2023-08-07T03:23:50;2.80;;;1.55;;
20014;SDS011;61787;42.022;23.078;2023-08-07T03:24:52;2.42;;;1.33;;
20014;SDS011;61787;42.022;23.078;2023-08-07T03:26:03;2.13;;;1.55;;
20014;SDS011;61787;42.022;23.078;2023-08-07T03:27:19;5.28;;;1.60;;
20014;SDS011;61787;42.022;23.078;2023-08-07T03:28:21;4.32;;;1.80;;
20014;SDS011;61787;42.022;23.078;2023-08-07T03:29:23;3.58;;;1.80;;
20014;SDS011;61787;42.022;23.078;2023-08-07T03:30:24;1.45;;;1.33;;
20014;SDS011;61787;42.022;23.078;2023-08-07T03:31:26;3.75;;;1.52;;
20014;SDS011;61787;42.022;23.078;2023-08-07T03:32:28;3.20;;;1.60;;
20014;SDS011;61787;42.022;23.078;2023-08-07T03:33:29;2.70;;;1.17;;
20014;SDS011;61787;42.022;23.078;2023-08-07T03:34:31;2.78;;;1.60;;
20014;SDS011;61787;42.022;23.078;2023-08-07T03:35:33;3.05;;;1.70;;
20014;SDS011;61787;42.022;23.078;2023-08-07T03:36:35;3.13;;;1.67;;
20014;SDS011;61787;42.022;23.078;2023-08-07T03:37:36;2.95;;;1.45;;
20014;SDS011;61787;42.022;23.078;2023-08-07T03:38:38;2.20;;;1.42;;
20014;SDS011;61787;42.022;23.078;2023-08-07T03:39:39;4.38;;;1.50;;
20014;SDS011;61787;42.022;23.078;2023-08-07T03:40:41;2.40;;;1.38;;
20014;SDS011;61787;42.022;23.078;2023-08-07T03:41:43;3.72;;;1.30;;
20014;SDS011;61787;42.022;23.078;2023-08-07T03:42:44;2.58;;;1.30;;
20014;SDS011;61787;42.022;23.078;2023-08-07T03:43:46;4.20;;;1.60;;
20014;SDS011;61787;42.022;23.078;2023-08-07T03:44:48;1.42;;;1.27;;
20014;SDS011;61787;42.022;23.078;2023-08-07T03:45:53;4.32;;;1.67;;
20014;SDS011;61787;42.022;23.078;2023-08-07T03:47:02;1.42;;;1.25;;
20014;SDS011;61787;42.022;23.078;2023-08-07T03:48:04;1.90;;;1.20;;
20014;SDS011;61787;42.022;23.078;2023-08-07T03:49:06;1.95;;;1.30;;
20014;SDS011;61787;42.022;23.078;2023-08-07T03:50:08;1.55;;;1.45;;
20014;SDS011;61787;42.022;23.078;2023-08-07T03:51:09;3.05;;;1.30;;
20014;SDS011;61787;42.022;23.078;2023-08-07T03:52:12;4.80;;;1.48;;
20014;SDS011;61787;42.022;23.078;2023-08-07T03:53:14;3.55;;;1.75;;
20014;SDS011;61787;42.022;23.078;2023-08-07T03:54:15;4.47;;;1.55;;
20014;SDS011;61787;42.022;23.078;2023-08-07T03:55:17;2.75;;;1.75;;
20014;SDS011;61787;42.022;23.078;2023-08-07T03:56:19;4.28;;;1.98;;
20014;SDS011;61787;42.022;23.078;2023-08-07T03:57:21;1.88;;;1.63;;
20014;SDS011;61787;42.022;23.078;2023-08-07T03:58:23;4.00;;;2.67;;
20014;SDS011;61787;42.022;23.078;2023-08-07T03:59:24;2.63;;;1.98;;
20014;SDS011;61787;42.022;23.078;2023-08-07T04:00:26;3.15;;;1.88;;
20014;SDS011;61787;42.022;23.078;2023-08-07T04:01:28;2.17;;;1.77;;
20014;SDS011;61787;42.022;23.078;2023-08-07T04:02:29;3.95;;;1.98;;
20014;SDS011;61787;42.022;23.078;2023-08-07T04:03:31;5.22;;;1.70;;
20014;SDS011;61787;42.022;23.078;2023-08-07T04:04:33;3.28;;;1.83;;
20014;SDS011;61787;42.022;23.078;2023-08-07T04:05:34;5.43;;;1.38;;
20014;SDS011;61787;42.022;23.078;2023-08-07T04:06:36;4.22;;;1.50;;
20014;SDS011;61787;42.022;23.078;2023-08-07T04:07:38;5.93;;;1.75;;
20014;SDS011;61787;42.022;23.078;2023-08-07T04:08:39;3.70;;;1.60;;
20014;SDS011;61787;42.022;23.078;2023-08-07T04:09:41;3.00;;;1.60;;
20014;SDS011;61787;42.022;23.078;2023-08-07T04:10:43;1.90;;;1.15;;
20014;SDS011;61787;42.022;23.078;2023-08-07T04:11:45;1.88;;;1.30;;
20014;SDS011;61787;42.022;23.078;2023-08-07T04:12:46;3.90;;;1.40;;
20014;SDS011;61787;42.022;23.078;2023-08-07T04:13:48;2.70;;;1.42;;
20014;SDS011;61787;42.022;23.078;2023-08-07T04:14:49;2.50;;;1.50;;
20014;SDS011;61787;42.022;23.078;2023-08-07T04:15:51;3.78;;;1.58;;
20014;SDS011;61787;42.022;23.078;2023-08-07T04:16:53;4.28;;;1.60;;
20014;SDS011;61787;42.022;23.078;2023-08-07T04:17:55;5.95;;;1.98;;
20014;SDS011;61787;42.022;23.078;2023-08-07T04:18:57;3.45;;;1.70;;
20014;SDS011;61787;42.022;23.078;2023-08-07T04:19:59;4.38;;;2.00;;
20014;SDS011;61787;42.022;23.078;2023-08-07T04:21:01;6.43;;;1.85;;
20014;SDS011;61787;42.022;23.078;2023-08-07T04:22:03;3.47;;;1.67;;
20014;SDS011;61787;42.022;23.078;2023-08-07T04:23:05;5.18;;;1.65;;
20014;SDS011;61787;42.022;23.078;2023-08-07T04:24:06;2.92;;;1.50;;
20014;SDS011;61787;42.022;23.078;2023-08-07T04:25:14;2.78;;;1.63;;
20014;SDS011;61787;42.022;23.078;2023-08-07T04:26:16;2.28;;;1.60;;
20014;SDS011;61787;42.022;23.078;2023-08-07T04:27:17;1.85;;;1.40;;
20014;SDS011;61787;42.022;23.078;2023-08-07T04:28:19;2.28;;;1.65;;
20014;SDS011;61787;42.022;23.078;2023-08-07T04:29:21;2.80;;;1.70;;
20014;SDS011;61787;42.022;23.078;2023-08-07T04:30:23;6.05;;;1.70;;
20014;SDS011;61787;42.022;23.078;2023-08-07T04:31:24;2.33;;;1.40;;
20014;SDS011;61787;42.022;23.078;2023-08-07T04:32:26;3.65;;;1.77;;
20014;SDS011;61787;42.022;23.078;2023-08-07T04:33:28;3.90;;;1.67;;
20014;SDS011;61787;42.022;23.078;2023-08-07T04:34:29;2.88;;;1.70;;
20014;SDS011;61787;42.022;23.078;2023-08-07T04:35:31;6.53;;;1.83;;
20014;SDS011;61787;42.022;23.078;2023-08-07T04:36:33;3.92;;;1.35;;
20014;SDS011;61787;42.022;23.078;2023-08-07T04:37:34;4.90;;;1.60;;
20014;SDS011;61787;42.022;23.078;2023-08-07T04:38:36;3.38;;;2.05;;
20014;SDS011;61787;42.022;23.078;2023-08-07T04:39:38;2.88;;;1.73;;
20014;SDS011;61787;42.022;23.078;2023-08-07T04:40:45;5.50;;;1.80;;
20014;SDS011;61787;42.022;23.078;2023-08-07T04:41:48;4.68;;;1.65;;
20014;SDS011;61787;42.022;23.078;2023-08-07T04:42:52;7.07;;;1.70;;
20014;SDS011;61787;42.022;23.078;2023-08-07T04:43:54;7.20;;;1.88;;
20014;SDS011;61787;42.022;23.078;2023-08-07T04:44:56;5.45;;;1.80;;
20014;SDS011;61787;42.022;23.078;2023-08-07T04:45:57;4.03;;;1.88;;
20014;SDS011;61787;42.022;23.078;2023-08-07T04:46:59;3.10;;;1.92;;
20014;SDS011;61787;42.022;23.078;2023-08-07T04:48:01;3.10;;;1.50;;
20014;SDS011;61787;42.022;23.078;2023-08-07T04:49:03;4.25;;;1.88;;
20014;SDS011;61787;42.022;23.078;2023-08-07T04:50:05;4.10;;;1.88;;
20014;SDS011;61787;42.022;23.078;2023-08-07T04:51:07;4.65;;;1.90;;
20014;SDS011;61787;42.022;23.078;2023-08-07T04:52:08;1.75;;;1.65;;
20014;SDS011;61787;42.022;23.078;2023-08-07T04:53:26;4.90;;;1.67;;
20014;SDS011;61787;42.022;23.078;2023-08-07T04:54:27;3.08;;;1.70;;
20014;SDS011;61787;42.022;23.078;2023-08-07T04:55:29;3.33;;;1.58;;
20014;SDS011;61787;42.022;23.078;2023-08-07T04:56:31;3.28;;;2.17;;
20014;SDS011;61787;42.022;23.078;2023-08-07T04:57:33;1.98;;;1.60;;
20014;SDS011;61787;42.022;23.078;2023-08-07T04:58:34;4.97;;;1.80;;
20014;SDS011;61787;42.022;23.078;2023-08-07T04:59:36;4.65;;;2.10;;
20014;SDS011;61787;42.022;23.078;2023-08-07T05:00:38;2.53;;;1.80;;
20014;SDS011;61787;42.022;23.078;2023-08-07T05:01:39;8.10;;;2.55;;
20014;SDS011;61787;42.022;23.078;2023-08-07T05:02:41;5.35;;;1.85;;
20014;SDS011;61787;42.022;23.078;2023-08-07T05:03:43;11.23;;;2.17;;
20014;SDS011;61787;42.022;23.078;2023-08-07T05:04:44;6.82;;;2.10;;
20014;SDS011;61787;42.022;23.078;2023-08-07T05:05:46;5.93;;;2.28;;
20014;SDS011;61787;42.022;23.078;2023-08-07T05:06:48;7.15;;;2.15;;
20014;SDS011;61787;42.022;23.078;2023-08-07T05:07:50;5.28;;;1.80;;
20014;SDS011;61787;42.022;23.078;2023-08-07T05:08:52;9.27;;;2.33;;
20014;SDS011;61787;42.022;23.078;2023-08-07T05:09:53;4.90;;;1.98;;
20014;SDS011;61787;42.022;23.078;2023-08-07T05:10:55;6.22;;;2.05;;
20014;SDS011;61787;42.022;23.078;2023-08-07T05:11:56;6.45;;;2.53;;
20014;SDS011;61787;42.022;23.078;2023-08-07T05:12:58;3.40;;;1.90;;
20014;SDS011;61787;42.022;23.078;2023-08-07T05:14:00;6.70;;;2.05;;
20014;SDS011;61787;42.022;23.078;2023-08-07T05:15:02;3.95;;;2.20;;
20014;SDS011;61787;42.022;23.078;2023-08-07T05:16:04;6.72;;;2.00;;
20014;SDS011;61787;42.022;23.078;2023-08-07T05:17:05;5.18;;;2.10;;
20014;SDS011;61787;42.022;23.078;2023-08-07T05:18:07;4.30;;;2.03;;
20014;SDS011;61787;42.022;23.078;2023-08-07T05:19:08;5.10;;;2.00;;
20014;SDS011;61787;42.022;23.078;2023-08-07T05:20:10;3.72;;;2.17;;
20014;SDS011;61787;42.022;23.078;2023-08-07T05:21:12;8.98;;;2.17;;
20014;SDS011;61787;42.022;23.078;2023-08-07T05:22:15;3.78;;;2.08;;
20014;SDS011;61787;42.022;23.078;2023-08-07T05:23:16;7.10;;;2.10;;
20014;SDS011;61787;42.022;23.078;2023-08-07T05:24:18;3.63;;;2.30;;
20014;SDS011;61787;42.022;23.078;2023-08-07T05:25:20;4.93;;;2.10;;
20014;SDS011;61787;42.022;23.078;2023-08-07T05:26:21;7.18;;;2.40;;
20014;SDS011;61787;42.022;23.078;2023-08-07T05:27:23;20.95;;;4.40;;
20014;SDS011;61787;42.022;23.078;2023-08-07T05:28:25;8.10;;;2.08;;
20014;SDS011;61787;42.022;23.078;2023-08-07T05:29:27;2.72;;;1.88;;
20014;SDS011;61787;42.022;23.078;2023-08-07T05:30:29;7.82;;;1.70;;
20014;SDS011;61787;42.022;23.078;2023-08-07T05:31:30;7.25;;;1.60;;
20014;SDS011;61787;42.022;23.078;2023-08-07T05:32:32;3.03;;;1.83;;
20014;SDS011;61787;42.022;23.078;2023-08-07T05:33:34;2.58;;;1.60;;
20014;SDS011;61787;42.022;23.078;2023-08-07T05:34:35;2.45;;;1.60;;
20014;SDS011;61787;42.022;23.078;2023-08-07T05:35:38;7.97;;;2.45;;
20014;SDS011;61787;42.022;23.078;2023-08-07T05:36:40;4.18;;;2.10;;
20014;SDS011;61787;42.022;23.078;2023-08-07T05:37:42;4.20;;;1.98;;
20014;SDS011;61787;42.022;23.078;2023-08-07T05:38:44;6.13;;;1.60;;
20014;SDS011;61787;42.022;23.078;2023-08-07T05:39:45;4.80;;;1.50;;
20014;SDS011;61787;42.022;23.078;2023-08-07T05:40:47;6.45;;;1.60;;
20014;SDS011;61787;42.022;23.078;2023-08-07T05:41:52;2.63;;;1.75;;
20014;SDS011;61787;42.022;23.078;2023-08-07T05:42:56;2.97;;;1.40;;
20014;SDS011;61787;42.022;23.078;2023-08-07T05:43:57;3.88;;;1.60;;
20014;SDS011;61787;42.022;23.078;2023-08-07T05:45:02;4.72;;;1.67;;
20014;SDS011;61787;42.022;23.078;2023-08-07T05:46:04;3.40;;;1.58;;
20014;SDS011;61787;42.022;23.078;2023-08-07T05:47:06;3.28;;;1.38;;
20014;SDS011;61787;42.022;23.078;2023-08-07T05:48:08;5.88;;;2.20;;
20014;SDS011;61787;42.022;23.078;2023-08-07T05:49:10;5.13;;;3.17;;
20014;SDS011;61787;42.022;23.078;2023-08-07T05:50:12;4.75;;;1.55;;
20014;SDS011;61787;42.022;23.078;2023-08-07T05:51:14;2.88;;;1.60;;
20014;SDS011;61787;42.022;23.078;2023-08-07T05:52:17;2.65;;;1.48;;
20014;SDS011;61787;42.022;23.078;2023-08-07T05:53:19;3.40;;;1.48;;
20014;SDS011;61787;42.022;23.078;2023-08-07T05:54:21;3.83;;;1.58;;
20014;SDS011;61787;42.022;23.078;2023-08-07T05:55:22;4.13;;;1.40;;
20014;SDS011;61787;42.022;23.078;2023-08-07T05:56:24;3.83;;;1.95;;
20014;SDS011;61787;42.022;23.078;2023-08-07T05:57:26;6.35;;;1.58;;
20014;SDS011;61787;42.022;23.078;2023-08-07T05:58:27;3.25;;;1.70;;
20014;SDS011;61787;42.022;23.078;2023-08-07T05:59:29;3.47;;;1.60;;
20014;SDS011;61787;42.022;23.078;2023-08-07T06:00:31;1.95;;;1.50;;
20014;SDS011;61787;42.022;23.078;2023-08-07T06:01:33;2.58;;;1.30;;
20014;SDS011;61787;42.022;23.078;2023-08-07T06:02:35;2.70;;;1.55;;
20014;SDS011;61787;42.022;23.078;2023-08-07T06:03:36;2.15;;;1.30;;
20014;SDS011;61787;42.022;23.078;2023-08-07T06:04:38;4.75;;;1.20;;
20014;SDS011;61787;42.022;23.078;2023-08-07T06:05:40;1.83;;;1.45;;
20014;SDS011;61787;42.022;23.078;2023-08-07T06:06:42;3.60;;;1.88;;
20014;SDS011;61787;42.022;23.078;2023-08-07T06:07:44;1.77;;;1.48;;
20014;SDS011;61787;42.022;23.078;2023-08-07T06:08:45;2.60;;;1.35;;
20014;SDS011;61787;42.022;23.078;2023-08-07T06:09:47;4.50;;;1.60;;
20014;SDS011;61787;42.022;23.078;2023-08-07T06:10:49;2.55;;;1.92;;
20014;SDS011;61787;42.022;23.078;2023-08-07T06:11:50;3.65;;;2.95;;
20014;SDS011;61787;42.022;23.078;2023-08-07T06:12:53;13.02;;;2.47;;
20014;SDS011;61787;42.022;23.078;2023-08-07T06:13:55;2.25;;;1.30;;